sensor_id;sensor_type;location;lat;lon;timestamp;P1;durP1;ratioP1;P2;durP2;ratioP2
11735;SDS011;5924;51.398;7.088;2023-04-24T00:00:34;0.87;;;0.70;;
11735;SDS011;5924;51.398;7.088;2023-04-24T00:03:00;2.90;;;0.80;;
11735;SDS011;5924;51.398;7.088;2023-04-24T00:05:28;0.93;;;0.90;;
11735;SDS011;5924;51.398;7.088;2023-04-24T00:07:53;2.90;;;1.00;;
11735;SDS011;5924;51.398;7.088;2023-04-24T00:10:20;0.80;;;0.80;;
11735;SDS011;5924;51.398;7.088;2023-04-24T00:12:46;1.00;;;1.00;;
11735;SDS011;5924;51.398;7.088;2023-04-24T00:15:12;1.07;;;0.90;;
11735;SDS011;5924;51.398;7.088;2023-04-24T00:17:37;1.00;;;1.00;;
11735;SDS011;5924;51.398;7.088;2023-04-24T00:20:03;1.00;;;1.00;;
11735;SDS011;5924;51.398;7.088;2023-04-24T00:22:31;1.17;;;1.17;;
11735;SDS011;5924;51.398;7.088;2023-04-24T00:24:57;0.97;;;0.97;;
11735;SDS011;5924;51.398;7.088;2023-04-24T00:27:23;4.00;;;1.20;;
11735;SDS011;5924;51.398;7.088;2023-04-24T00:29:49;1.17;;;1.00;;
11735;SDS011;5924;51.398;7.088;2023-04-24T00:32:14;1.20;;;1.20;;
11735;SDS011;5924;51.398;7.088;2023-04-24T00:34:40;1.00;;;1.00;;
11735;SDS011;5924;51.398;7.088;2023-04-24T00:37:06;1.30;;;1.30;;
11735;SDS011;5924;51.398;7.088;2023-04-24T00:39:32;1.47;;;1.37;;
11735;SDS011;5924;51.398;7.088;2023-04-24T00:41:58;1.10;;;1.10;;
11735;SDS011;5924;51.398;7.088;2023-04-24T00:44:24;1.60;;;1.00;;
11735;SDS011;5924;51.398;7.088;2023-04-24T00:46:50;2.83;;;1.50;;
11735;SDS011;5924;51.398;7.088;2023-04-24T00:49:19;0.90;;;0.90;;
11735;SDS011;5924;51.398;7.088;2023-04-24T00:51:46;1.35;;;1.25;;
11735;SDS011;5924;51.398;7.088;2023-04-24T00:54:14;1.00;;;1.00;;
11735;SDS011;5924;51.398;7.088;2023-04-24T00:56:40;1.30;;;1.30;;
11735;SDS011;5924;51.398;7.088;2023-04-24T00:59:07;1.40;;;1.30;;
11735;SDS011;5924;51.398;7.088;2023-04-24T01:01:33;1.33;;;1.33;;
11735;SDS011;5924;51.398;7.088;2023-04-24T01:03:59;5.50;;;1.40;;
11735;SDS011;5924;51.398;7.088;2023-04-24T01:06:27;1.30;;;1.30;;
11735;SDS011;5924;51.398;7.088;2023-04-24T01:08:53;1.50;;;1.40;;
11735;SDS011;5924;51.398;7.088;2023-04-24T01:11:20;1.38;;;1.02;;
11735;SDS011;5924;51.398;7.088;2023-04-24T01:13:47;1.40;;;1.30;;
11735;SDS011;5924;51.398;7.088;2023-04-24T01:16:13;1.53;;;1.53;;
11735;SDS011;5924;51.398;7.088;2023-04-24T01:18:40;1.30;;;1.30;;
11735;SDS011;5924;51.398;7.088;2023-04-24T01:21:06;1.50;;;1.50;;
11735;SDS011;5924;51.398;7.088;2023-04-24T01:23:34;1.80;;;1.70;;
11735;SDS011;5924;51.398;7.088;2023-04-24T01:26:00;1.73;;;1.63;;
11735;SDS011;5924;51.398;7.088;2023-04-24T01:28:26;2.53;;;2.13;;
11735;SDS011;5924;51.398;7.088;2023-04-24T01:30:52;2.93;;;1.50;;
11735;SDS011;5924;51.398;7.088;2023-04-24T01:33:18;2.60;;;1.50;;
11735;SDS011;5924;51.398;7.088;2023-04-24T01:35:47;1.70;;;1.70;;
11735;SDS011;5924;51.398;7.088;2023-04-24T01:38:13;2.90;;;2.10;;
11735;SDS011;5924;51.398;7.088;2023-04-24T01:40:39;1.87;;;1.87;;
11735;SDS011;5924;51.398;7.088;2023-04-24T01:43:05;2.97;;;2.77;;
11735;SDS011;5924;51.398;7.088;2023-04-24T01:45:31;1.83;;;1.83;;
11735;SDS011;5924;51.398;7.088;2023-04-24T01:47:56;2.73;;;2.47;;
11735;SDS011;5924;51.398;7.088;2023-04-24T01:50:22;2.20;;;2.20;;
11735;SDS011;5924;51.398;7.088;2023-04-24T01:52:48;2.43;;;2.33;;
11735;SDS011;5924;51.398;7.088;2023-04-24T01:55:14;2.40;;;2.30;;
11735;SDS011;5924;51.398;7.088;2023-04-24T01:57:40;2.93;;;2.73;;
11735;SDS011;5924;51.398;7.088;2023-04-24T02:00:06;3.33;;;3.23;;
11735;SDS011;5924;51.398;7.088;2023-04-24T02:02:32;4.40;;;4.00;;
11735;SDS011;5924;51.398;7.088;2023-04-24T02:04:59;4.40;;;4.20;;
11735;SDS011;5924;51.398;7.088;2023-04-24T02:07:24;6.03;;;5.43;;
11735;SDS011;5924;51.398;7.088;2023-04-24T02:09:50;7.83;;;5.40;;
11735;SDS011;5924;51.398;7.088;2023-04-24T02:12:16;6.30;;;5.07;;
11735;SDS011;5924;51.398;7.088;2023-04-24T02:14:42;6.10;;;5.47;;
11735;SDS011;5924;51.398;7.088;2023-04-24T02:17:09;8.43;;;6.23;;
11735;SDS011;5924;51.398;7.088;2023-04-24T02:19:34;5.93;;;5.50;;
11735;SDS011;5924;51.398;7.088;2023-04-24T02:22:00;10.50;;;5.77;;
11735;SDS011;5924;51.398;7.088;2023-04-24T02:24:26;7.40;;;6.57;;
11735;SDS011;5924;51.398;7.088;2023-04-24T02:26:51;9.77;;;6.40;;
11735;SDS011;5924;51.398;7.088;2023-04-24T02:29:17;7.07;;;5.60;;
11735;SDS011;5924;51.398;7.088;2023-04-24T02:31:42;8.00;;;6.13;;
11735;SDS011;5924;51.398;7.088;2023-04-24T02:34:08;11.70;;;7.53;;
11735;SDS011;5924;51.398;7.088;2023-04-24T02:36:34;9.53;;;6.40;;
11735;SDS011;5924;51.398;7.088;2023-04-24T02:39:00;11.57;;;8.23;;
11735;SDS011;5924;51.398;7.088;2023-04-24T02:41:26;11.53;;;6.70;;
11735;SDS011;5924;51.398;7.088;2023-04-24T02:43:56;11.40;;;7.07;;
11735;SDS011;5924;51.398;7.088;2023-04-24T02:46:23;8.53;;;7.10;;
11735;SDS011;5924;51.398;7.088;2023-04-24T02:48:48;8.47;;;7.73;;
11735;SDS011;5924;51.398;7.088;2023-04-24T02:51:14;7.67;;;6.97;;
11735;SDS011;5924;51.398;7.088;2023-04-24T02:53:40;10.60;;;8.30;;
11735;SDS011;5924;51.398;7.088;2023-04-24T02:56:05;12.90;;;7.87;;
11735;SDS011;5924;51.398;7.088;2023-04-24T02:58:31;10.77;;;7.77;;
11735;SDS011;5924;51.398;7.088;2023-04-24T03:00:57;9.43;;;8.47;;
11735;SDS011;5924;51.398;7.088;2023-04-24T03:03:22;7.50;;;6.87;;
11735;SDS011;5924;51.398;7.088;2023-04-24T03:05:48;16.10;;;8.13;;
11735;SDS011;5924;51.398;7.088;2023-04-24T03:08:15;7.93;;;7.23;;
11735;SDS011;5924;51.398;7.088;2023-04-24T03:10:41;8.50;;;7.70;;
11735;SDS011;5924;51.398;7.088;2023-04-24T03:13:06;11.20;;;8.10;;
11735;SDS011;5924;51.398;7.088;2023-04-24T03:15:32;12.17;;;8.20;;
11735;SDS011;5924;51.398;7.088;2023-04-24T03:17:58;9.23;;;7.93;;
11735;SDS011;5924;51.398;7.088;2023-04-24T03:20:23;14.77;;;7.77;;
11735;SDS011;5924;51.398;7.088;2023-04-24T03:22:49;16.00;;;8.63;;
11735;SDS011;5924;51.398;7.088;2023-04-24T03:25:15;10.53;;;8.57;;
11735;SDS011;5924;51.398;7.088;2023-04-24T03:27:40;12.43;;;8.60;;
11735;SDS011;5924;51.398;7.088;2023-04-24T03:30:06;9.53;;;8.37;;
11735;SDS011;5924;51.398;7.088;2023-04-24T03:32:33;17.73;;;8.60;;
11735;SDS011;5924;51.398;7.088;2023-04-24T03:34:58;10.97;;;8.70;;
11735;SDS011;5924;51.398;7.088;2023-04-24T03:37:24;11.70;;;8.80;;
11735;SDS011;5924;51.398;7.088;2023-04-24T03:39:51;13.10;;;8.27;;
11735;SDS011;5924;51.398;7.088;2023-04-24T03:42:17;11.00;;;9.57;;
11735;SDS011;5924;51.398;7.088;2023-04-24T03:44:42;9.63;;;8.77;;
11735;SDS011;5924;51.398;7.088;2023-04-24T03:47:08;16.37;;;8.50;;
11735;SDS011;5924;51.398;7.088;2023-04-24T03:49:34;14.00;;;8.87;;
11735;SDS011;5924;51.398;7.088;2023-04-24T03:51:59;12.17;;;9.37;;
11735;SDS011;5924;51.398;7.088;2023-04-24T03:54:25;11.00;;;9.33;;
11735;SDS011;5924;51.398;7.088;2023-04-24T03:56:51;17.60;;;9.87;;
11735;SDS011;5924;51.398;7.088;2023-04-24T03:59:16;16.10;;;9.60;;
11735;SDS011;5924;51.398;7.088;2023-04-24T04:01:42;12.73;;;8.97;;
11735;SDS011;5924;51.398;7.088;2023-04-24T04:04:07;13.87;;;9.43;;
11735;SDS011;5924;51.398;7.088;2023-04-24T04:06:33;15.83;;;9.17;;
11735;SDS011;5924;51.398;7.088;2023-04-24T04:08:59;16.00;;;8.80;;
11735;SDS011;5924;51.398;7.088;2023-04-24T04:11:25;13.50;;;8.60;;
11735;SDS011;5924;51.398;7.088;2023-04-24T04:13:51;11.70;;;9.10;;
11735;SDS011;5924;51.398;7.088;2023-04-24T04:16:17;13.80;;;9.47;;
11735;SDS011;5924;51.398;7.088;2023-04-24T04:18:43;18.70;;;9.90;;
11735;SDS011;5924;51.398;7.088;2023-04-24T04:21:09;15.93;;;9.70;;
11735;SDS011;5924;51.398;7.088;2023-04-24T04:23:34;11.00;;;9.20;;
11735;SDS011;5924;51.398;7.088;2023-04-24T04:26:00;16.17;;;8.87;;
11735;SDS011;5924;51.398;7.088;2023-04-24T04:28:26;13.80;;;8.03;;
11735;SDS011;5924;51.398;7.088;2023-04-24T04:30:52;13.40;;;9.40;;
11735;SDS011;5924;51.398;7.088;2023-04-24T04:33:22;13.03;;;9.67;;
11735;SDS011;5924;51.398;7.088;2023-04-24T04:35:48;18.63;;;11.13;;
11735;SDS011;5924;51.398;7.088;2023-04-24T04:38:15;13.63;;;9.23;;
11735;SDS011;5924;51.398;7.088;2023-04-24T04:40:42;12.87;;;10.70;;
11735;SDS011;5924;51.398;7.088;2023-04-24T04:43:08;18.70;;;9.77;;
11735;SDS011;5924;51.398;7.088;2023-04-24T04:45:35;13.13;;;9.87;;
11735;SDS011;5924;51.398;7.088;2023-04-24T04:48:00;12.00;;;9.30;;
11735;SDS011;5924;51.398;7.088;2023-04-24T04:50:27;13.27;;;9.67;;
11735;SDS011;5924;51.398;7.088;2023-04-24T04:52:52;16.93;;;9.43;;
11735;SDS011;5924;51.398;7.088;2023-04-24T04:55:18;10.57;;;8.30;;
11735;SDS011;5924;51.398;7.088;2023-04-24T04:57:46;9.47;;;8.23;;
11735;SDS011;5924;51.398;7.088;2023-04-24T05:00:13;12.83;;;8.00;;
11735;SDS011;5924;51.398;7.088;2023-04-24T05:02:39;9.13;;;8.30;;
11735;SDS011;5924;51.398;7.088;2023-04-24T05:05:05;14.23;;;9.47;;
11735;SDS011;5924;51.398;7.088;2023-04-24T05:07:31;10.93;;;8.30;;
11735;SDS011;5924;51.398;7.088;2023-04-24T05:09:57;8.47;;;7.63;;
11735;SDS011;5924;51.398;7.088;2023-04-24T05:12:23;9.10;;;8.30;;
11735;SDS011;5924;51.398;7.088;2023-04-24T05:14:49;11.33;;;8.83;;
11735;SDS011;5924;51.398;7.088;2023-04-24T05:17:14;11.80;;;7.87;;
11735;SDS011;5924;51.398;7.088;2023-04-24T05:19:41;14.33;;;9.23;;
11735;SDS011;5924;51.398;7.088;2023-04-24T05:22:07;7.90;;;7.17;;
11735;SDS011;5924;51.398;7.088;2023-04-24T05:24:34;14.27;;;7.90;;
11735;SDS011;5924;51.398;7.088;2023-04-24T05:27:00;8.90;;;8.00;;
11735;SDS011;5924;51.398;7.088;2023-04-24T05:29:27;10.02;;;8.55;;
11735;SDS011;5924;51.398;7.088;2023-04-24T05:31:55;8.90;;;8.10;;
11735;SDS011;5924;51.398;7.088;2023-04-24T05:34:21;12.40;;;8.67;;
11735;SDS011;5924;51.398;7.088;2023-04-24T05:36:47;12.50;;;8.97;;
11735;SDS011;5924;51.398;7.088;2023-04-24T05:39:13;10.73;;;9.33;;
11735;SDS011;5924;51.398;7.088;2023-04-24T05:41:39;11.20;;;9.50;;
11735;SDS011;5924;51.398;7.088;2023-04-24T05:44:04;11.73;;;9.90;;
11735;SDS011;5924;51.398;7.088;2023-04-24T05:46:30;10.80;;;9.10;;
11735;SDS011;5924;51.398;7.088;2023-04-24T05:48:56;15.30;;;9.83;;
11735;SDS011;5924;51.398;7.088;2023-04-24T05:51:21;14.33;;;10.70;;
11735;SDS011;5924;51.398;7.088;2023-04-24T05:53:47;14.33;;;9.13;;
11735;SDS011;5924;51.398;7.088;2023-04-24T05:56:13;13.30;;;9.60;;
11735;SDS011;5924;51.398;7.088;2023-04-24T05:58:38;12.00;;;9.60;;
11735;SDS011;5924;51.398;7.088;2023-04-24T06:01:04;11.57;;;8.93;;
11735;SDS011;5924;51.398;7.088;2023-04-24T06:03:30;14.20;;;9.73;;
11735;SDS011;5924;51.398;7.088;2023-04-24T06:05:56;10.53;;;8.83;;
11735;SDS011;5924;51.398;7.088;2023-04-24T06:08:22;10.87;;;8.20;;
11735;SDS011;5924;51.398;7.088;2023-04-24T06:10:47;11.13;;;8.60;;
11735;SDS011;5924;51.398;7.088;2023-04-24T06:13:13;9.90;;;8.67;;
11735;SDS011;5924;51.398;7.088;2023-04-24T06:15:39;10.97;;;7.90;;
11735;SDS011;5924;51.398;7.088;2023-04-24T06:18:05;10.23;;;7.27;;
11735;SDS011;5924;51.398;7.088;2023-04-24T06:20:31;8.63;;;7.30;;
11735;SDS011;5924;51.398;7.088;2023-04-24T06:22:57;10.50;;;8.50;;
11735;SDS011;5924;51.398;7.088;2023-04-24T06:25:25;8.80;;;7.90;;
11735;SDS011;5924;51.398;7.088;2023-04-24T06:27:51;8.90;;;6.97;;
11735;SDS011;5924;51.398;7.088;2023-04-24T06:30:17;8.50;;;7.70;;
11735;SDS011;5924;51.398;7.088;2023-04-24T06:32:42;16.77;;;8.30;;
11735;SDS011;5924;51.398;7.088;2023-04-24T06:35:08;10.90;;;8.90;;
11735;SDS011;5924;51.398;7.088;2023-04-24T06:37:34;7.90;;;7.00;;
11735;SDS011;5924;51.398;7.088;2023-04-24T06:40:00;11.67;;;7.83;;
11735;SDS011;5924;51.398;7.088;2023-04-24T06:42:26;9.23;;;7.70;;
11735;SDS011;5924;51.398;7.088;2023-04-24T06:44:52;8.53;;;7.40;;
11735;SDS011;5924;51.398;7.088;2023-04-24T06:47:17;7.97;;;7.17;;
11735;SDS011;5924;51.398;7.088;2023-04-24T06:49:43;9.30;;;8.40;;
11735;SDS011;5924;51.398;7.088;2023-04-24T06:52:09;8.93;;;8.07;;
11735;SDS011;5924;51.398;7.088;2023-04-24T06:54:35;10.17;;;6.67;;
11735;SDS011;5924;51.398;7.088;2023-04-24T06:57:00;12.73;;;7.40;;
11735;SDS011;5924;51.398;7.088;2023-04-24T06:59:28;10.57;;;7.90;;
11735;SDS011;5924;51.398;7.088;2023-04-24T07:01:54;9.93;;;7.20;;
11735;SDS011;5924;51.398;7.088;2023-04-24T07:04:20;7.82;;;7.03;;
11735;SDS011;5924;51.398;7.088;2023-04-24T07:06:46;7.57;;;6.90;;
11735;SDS011;5924;51.398;7.088;2023-04-24T07:09:12;6.20;;;5.70;;
11735;SDS011;5924;51.398;7.088;2023-04-24T07:11:39;5.70;;;5.30;;
11735;SDS011;5924;51.398;7.088;2023-04-24T07:15:05;4.50;;;4.30;;
11735;SDS011;5924;51.398;7.088;2023-04-24T07:22:21;4.27;;;3.73;;
11735;SDS011;5924;51.398;7.088;2023-04-24T07:25:50;3.60;;;3.50;;
11735;SDS011;5924;51.398;7.088;2023-04-24T07:29:23;4.67;;;4.40;;
11735;SDS011;5924;51.398;7.088;2023-04-24T07:32:50;5.10;;;4.77;;
11735;SDS011;5924;51.398;7.088;2023-04-24T07:36:33;11.40;;;6.53;;
11735;SDS011;5924;51.398;7.088;2023-04-24T07:40:05;3.70;;;3.50;;
11735;SDS011;5924;51.398;7.088;2023-04-24T07:43:13;2.50;;;2.37;;
11735;SDS011;5924;51.398;7.088;2023-04-24T07:46:38;2.40;;;2.30;;
11735;SDS011;5924;51.398;7.088;2023-04-24T07:49:04;1.60;;;1.50;;
11735;SDS011;5924;51.398;7.088;2023-04-24T07:51:30;1.40;;;1.37;;
11735;SDS011;5924;51.398;7.088;2023-04-24T07:53:57;1.30;;;1.30;;
11735;SDS011;5924;51.398;7.088;2023-04-24T07:56:23;1.00;;;1.00;;
11735;SDS011;5924;51.398;7.088;2023-04-24T07:58:48;0.97;;;0.97;;
11735;SDS011;5924;51.398;7.088;2023-04-24T08:01:14;0.93;;;0.93;;
11735;SDS011;5924;51.398;7.088;2023-04-24T08:03:40;1.07;;;1.07;;
11735;SDS011;5924;51.398;7.088;2023-04-24T08:06:06;0.90;;;0.90;;
11735;SDS011;5924;51.398;7.088;2023-04-24T08:08:31;1.60;;;1.00;;
11735;SDS011;5924;51.398;7.088;2023-04-24T08:10:57;1.17;;;1.10;;
11735;SDS011;5924;51.398;7.088;2023-04-24T08:13:23;0.90;;;0.90;;
11735;SDS011;5924;51.398;7.088;2023-04-24T08:15:48;0.70;;;0.70;;
11735;SDS011;5924;51.398;7.088;2023-04-24T08:18:14;1.23;;;0.63;;
11735;SDS011;5924;51.398;7.088;2023-04-24T08:20:40;0.87;;;0.87;;
11735;SDS011;5924;51.398;7.088;2023-04-24T08:23:06;0.70;;;0.70;;
11735;SDS011;5924;51.398;7.088;2023-04-24T08:25:32;0.77;;;0.77;;
11735;SDS011;5924;51.398;7.088;2023-04-24T08:55:16;1.57;;;0.97;;
11735;SDS011;5924;51.398;7.088;2023-04-24T09:02:18;1.70;;;1.63;;
11735;SDS011;5924;51.398;7.088;2023-04-24T09:29:16;1.17;;;1.13;;
11735;SDS011;5924;51.398;7.088;2023-04-24T11:00:27;19.00;;;7.80;;
11735;SDS011;5924;51.398;7.088;2023-04-24T11:27:43;10.30;;;6.40;;
11735;SDS011;5924;51.398;7.088;2023-04-24T11:30:45;26.73;;;7.60;;
11735;SDS011;5924;51.398;7.088;2023-04-24T11:37:38;13.43;;;6.55;;
11735;SDS011;5924;51.398;7.088;2023-04-24T11:43:44;17.93;;;7.37;;
11735;SDS011;5924;51.398;7.088;2023-04-24T11:46:45;15.73;;;7.67;;
11735;SDS011;5924;51.398;7.088;2023-04-24T11:49:36;13.23;;;7.47;;
11735;SDS011;5924;51.398;7.088;2023-04-24T11:59:36;13.97;;;5.83;;
11735;SDS011;5924;51.398;7.088;2023-04-24T12:06:23;8.67;;;3.63;;
11735;SDS011;5924;51.398;7.088;2023-04-24T12:09:16;19.93;;;4.27;;
11735;SDS011;5924;51.398;7.088;2023-04-24T12:15:20;13.27;;;4.97;;
11735;SDS011;5924;51.398;7.088;2023-04-24T12:18:14;11.47;;;4.33;;
11735;SDS011;5924;51.398;7.088;2023-04-24T12:20:51;5.47;;;3.90;;
11735;SDS011;5924;51.398;7.088;2023-04-24T12:26:57;8.43;;;4.07;;
11735;SDS011;5924;51.398;7.088;2023-04-24T12:29:32;12.80;;;4.00;;
11735;SDS011;5924;51.398;7.088;2023-04-24T12:39:57;11.73;;;3.60;;
11735;SDS011;5924;51.398;7.088;2023-04-24T12:42:56;3.30;;;3.00;;
11735;SDS011;5924;51.398;7.088;2023-04-24T12:46:08;7.70;;;3.00;;
11735;SDS011;5924;51.398;7.088;2023-04-24T12:49:39;5.47;;;2.70;;
11735;SDS011;5924;51.398;7.088;2023-04-24T12:52:45;4.53;;;2.80;;
11735;SDS011;5924;51.398;7.088;2023-04-24T12:56:13;5.87;;;3.23;;
11735;SDS011;5924;51.398;7.088;2023-04-24T12:59:48;2.80;;;2.47;;
11735;SDS011;5924;51.398;7.088;2023-04-24T13:06:49;4.50;;;2.57;;
11735;SDS011;5924;51.398;7.088;2023-04-24T13:09:26;7.40;;;3.33;;
11735;SDS011;5924;51.398;7.088;2023-04-24T13:12:38;4.43;;;2.90;;
11735;SDS011;5924;51.398;7.088;2023-04-24T13:15:37;1.83;;;1.70;;
11735;SDS011;5924;51.398;7.088;2023-04-24T13:18:27;2.83;;;2.20;;
11735;SDS011;5924;51.398;7.088;2023-04-24T13:21:49;6.67;;;2.23;;
11735;SDS011;5924;51.398;7.088;2023-04-24T13:25:13;1.70;;;1.50;;
11735;SDS011;5924;51.398;7.088;2023-04-24T13:28:10;2.00;;;1.77;;
11735;SDS011;5924;51.398;7.088;2023-04-24T13:31:19;2.10;;;1.50;;
11735;SDS011;5924;51.398;7.088;2023-04-24T13:36:59;6.37;;;1.50;;
11735;SDS011;5924;51.398;7.088;2023-04-24T13:43:07;4.13;;;2.07;;
11735;SDS011;5924;51.398;7.088;2023-04-24T13:49:33;2.47;;;1.57;;
11735;SDS011;5924;51.398;7.088;2023-04-24T13:52:33;3.93;;;1.53;;
11735;SDS011;5924;51.398;7.088;2023-04-24T14:33:16;5.17;;;2.13;;
11735;SDS011;5924;51.398;7.088;2023-04-24T14:50:12;3.47;;;1.42;;
11735;SDS011;5924;51.398;7.088;2023-04-24T14:57:06;0.80;;;0.80;;
11735;SDS011;5924;51.398;7.088;2023-04-24T15:38:30;2.30;;;1.13;;
11735;SDS011;5924;51.398;7.088;2023-04-24T15:41:59;1.10;;;1.00;;
11735;SDS011;5924;51.398;7.088;2023-04-24T15:44:54;1.40;;;1.30;;
11735;SDS011;5924;51.398;7.088;2023-04-24T15:47:44;1.10;;;1.10;;
11735;SDS011;5924;51.398;7.088;2023-04-24T15:50:13;7.97;;;1.20;;
11735;SDS011;5924;51.398;7.088;2023-04-24T15:52:41;1.03;;;0.80;;
11735;SDS011;5924;51.398;7.088;2023-04-24T15:55:10;1.20;;;1.20;;
11735;SDS011;5924;51.398;7.088;2023-04-24T15:57:36;1.57;;;1.50;;
11735;SDS011;5924;51.398;7.088;2023-04-24T16:00:02;1.73;;;1.10;;
11735;SDS011;5924;51.398;7.088;2023-04-24T16:02:31;1.23;;;1.03;;
11735;SDS011;5924;51.398;7.088;2023-04-24T16:04:57;1.30;;;1.20;;
11735;SDS011;5924;51.398;7.088;2023-04-24T16:07:22;1.70;;;1.33;;
11735;SDS011;5924;51.398;7.088;2023-04-24T16:09:48;4.40;;;1.33;;
11735;SDS011;5924;51.398;7.088;2023-04-24T16:12:14;2.37;;;1.37;;
11735;SDS011;5924;51.398;7.088;2023-04-24T16:14:39;3.70;;;1.07;;
11735;SDS011;5924;51.398;7.088;2023-04-24T16:17:05;1.20;;;1.10;;
11735;SDS011;5924;51.398;7.088;2023-04-24T16:19:31;3.80;;;1.00;;
11735;SDS011;5924;51.398;7.088;2023-04-24T16:21:59;1.73;;;1.17;;
11735;SDS011;5924;51.398;7.088;2023-04-24T16:24:27;4.73;;;1.60;;
11735;SDS011;5924;51.398;7.088;2023-04-24T16:26:53;1.43;;;1.00;;
11735;SDS011;5924;51.398;7.088;2023-04-24T16:29:20;1.90;;;1.00;;
11735;SDS011;5924;51.398;7.088;2023-04-24T16:31:46;0.80;;;0.80;;
11735;SDS011;5924;51.398;7.088;2023-04-24T16:34:11;0.93;;;0.93;;
11735;SDS011;5924;51.398;7.088;2023-04-24T16:36:37;1.00;;;1.00;;
11735;SDS011;5924;51.398;7.088;2023-04-24T16:39:03;1.07;;;1.07;;
11735;SDS011;5924;51.398;7.088;2023-04-24T16:41:32;1.57;;;1.47;;
11735;SDS011;5924;51.398;7.088;2023-04-24T16:43:58;2.45;;;1.20;;
11735;SDS011;5924;51.398;7.088;2023-04-24T16:46:23;1.47;;;1.10;;
11735;SDS011;5924;51.398;7.088;2023-04-24T16:48:50;1.57;;;1.47;;
11735;SDS011;5924;51.398;7.088;2023-04-24T16:51:16;2.93;;;1.57;;
11735;SDS011;5924;51.398;7.088;2023-04-24T16:53:42;1.67;;;1.57;;
11735;SDS011;5924;51.398;7.088;2023-04-24T16:56:07;1.90;;;1.17;;
11735;SDS011;5924;51.398;7.088;2023-04-24T16:58:33;1.17;;;0.97;;
11735;SDS011;5924;51.398;7.088;2023-04-24T17:00:59;1.83;;;1.60;;
11735;SDS011;5924;51.398;7.088;2023-04-24T17:03:24;2.10;;;1.20;;
11735;SDS011;5924;51.398;7.088;2023-04-24T17:05:50;1.53;;;1.30;;
11735;SDS011;5924;51.398;7.088;2023-04-24T17:08:16;2.63;;;1.20;;
11735;SDS011;5924;51.398;7.088;2023-04-24T17:10:42;2.53;;;1.47;;
11735;SDS011;5924;51.398;7.088;2023-04-24T17:13:07;1.30;;;1.30;;
11735;SDS011;5924;51.398;7.088;2023-04-24T17:15:33;1.43;;;1.40;;
11735;SDS011;5924;51.398;7.088;2023-04-24T17:18:00;1.90;;;1.20;;
11735;SDS011;5924;51.398;7.088;2023-04-24T17:20:26;4.37;;;1.57;;
11735;SDS011;5924;51.398;7.088;2023-04-24T17:22:52;2.00;;;1.23;;
11735;SDS011;5924;51.398;7.088;2023-04-24T17:25:18;1.73;;;1.63;;
11735;SDS011;5924;51.398;7.088;2023-04-24T17:27:45;1.53;;;1.43;;
11735;SDS011;5924;51.398;7.088;2023-04-24T17:30:11;3.07;;;1.60;;
11735;SDS011;5924;51.398;7.088;2023-04-24T17:32:37;4.50;;;1.60;;
11735;SDS011;5924;51.398;7.088;2023-04-24T17:35:04;1.40;;;1.30;;
11735;SDS011;5924;51.398;7.088;2023-04-24T17:37:30;4.53;;;1.63;;
11735;SDS011;5924;51.398;7.088;2023-04-24T17:39:56;1.77;;;1.67;;
11735;SDS011;5924;51.398;7.088;2023-04-24T17:42:22;6.33;;;1.70;;
11735;SDS011;5924;51.398;7.088;2023-04-24T17:44:48;2.17;;;1.97;;
11735;SDS011;5924;51.398;7.088;2023-04-24T17:47:13;4.40;;;1.70;;
11735;SDS011;5924;51.398;7.088;2023-04-24T17:49:39;1.77;;;1.70;;
11735;SDS011;5924;51.398;7.088;2023-04-24T17:52:05;4.97;;;1.67;;
11735;SDS011;5924;51.398;7.088;2023-04-24T17:54:31;1.70;;;1.63;;
11735;SDS011;5924;51.398;7.088;2023-04-24T17:56:57;1.93;;;1.83;;
11735;SDS011;5924;51.398;7.088;2023-04-24T17:59:22;3.53;;;1.50;;
11735;SDS011;5924;51.398;7.088;2023-04-24T18:01:48;3.10;;;1.60;;
11735;SDS011;5924;51.398;7.088;2023-04-24T18:04:14;1.40;;;1.30;;
11735;SDS011;5924;51.398;7.088;2023-04-24T18:06:42;2.47;;;1.37;;
11735;SDS011;5924;51.398;7.088;2023-04-24T18:09:07;1.60;;;1.50;;
11735;SDS011;5924;51.398;7.088;2023-04-24T18:11:33;1.63;;;1.53;;
11735;SDS011;5924;51.398;7.088;2023-04-24T18:13:59;2.40;;;1.50;;
11735;SDS011;5924;51.398;7.088;2023-04-24T18:16:25;2.30;;;1.47;;
11735;SDS011;5924;51.398;7.088;2023-04-24T18:18:51;1.50;;;1.40;;
11735;SDS011;5924;51.398;7.088;2023-04-24T18:21:17;3.10;;;1.60;;
11735;SDS011;5924;51.398;7.088;2023-04-24T18:23:43;3.13;;;1.90;;
11735;SDS011;5924;51.398;7.088;2023-04-24T18:26:10;4.37;;;1.73;;
11735;SDS011;5924;51.398;7.088;2023-04-24T18:28:41;2.73;;;1.97;;
11735;SDS011;5924;51.398;7.088;2023-04-24T18:31:07;3.30;;;1.80;;
11735;SDS011;5924;51.398;7.088;2023-04-24T18:33:33;3.23;;;2.07;;
11735;SDS011;5924;51.398;7.088;2023-04-24T18:35:59;1.90;;;1.80;;
11735;SDS011;5924;51.398;7.088;2023-04-24T18:38:24;1.50;;;1.43;;
11735;SDS011;5924;51.398;7.088;2023-04-24T18:40:50;4.00;;;2.10;;
11735;SDS011;5924;51.398;7.088;2023-04-24T18:43:16;3.00;;;2.27;;
11735;SDS011;5924;51.398;7.088;2023-04-24T18:45:41;13.73;;;2.10;;
11735;SDS011;5924;51.398;7.088;2023-04-24T18:48:07;6.63;;;2.50;;
11735;SDS011;5924;51.398;7.088;2023-04-24T18:50:33;2.10;;;2.00;;
11735;SDS011;5924;51.398;7.088;2023-04-24T18:52:58;1.93;;;1.80;;
11735;SDS011;5924;51.398;7.088;2023-04-24T18:55:24;4.30;;;1.73;;
11735;SDS011;5924;51.398;7.088;2023-04-24T18:57:50;3.60;;;2.03;;
11735;SDS011;5924;51.398;7.088;2023-04-24T19:00:15;5.97;;;1.83;;
11735;SDS011;5924;51.398;7.088;2023-04-24T19:02:42;4.27;;;3.00;;
11735;SDS011;5924;51.398;7.088;2023-04-24T19:05:08;7.67;;;2.33;;
11735;SDS011;5924;51.398;7.088;2023-04-24T19:07:35;2.60;;;2.20;;
11735;SDS011;5924;51.398;7.088;2023-04-24T19:10:01;4.20;;;2.23;;
11735;SDS011;5924;51.398;7.088;2023-04-24T19:12:27;2.63;;;2.43;;
11735;SDS011;5924;51.398;7.088;2023-04-24T19:14:52;7.70;;;2.30;;
11735;SDS011;5924;51.398;7.088;2023-04-24T19:17:20;14.27;;;2.50;;
11735;SDS011;5924;51.398;7.088;2023-04-24T19:19:48;5.60;;;2.87;;
11735;SDS011;5924;51.398;7.088;2023-04-24T19:22:15;7.20;;;2.63;;
11735;SDS011;5924;51.398;7.088;2023-04-24T19:24:41;7.40;;;2.83;;
11735;SDS011;5924;51.398;7.088;2023-04-24T19:27:06;3.90;;;2.33;;
11735;SDS011;5924;51.398;7.088;2023-04-24T19:29:32;4.30;;;2.40;;
11735;SDS011;5924;51.398;7.088;2023-04-24T19:31:58;5.43;;;2.77;;
11735;SDS011;5924;51.398;7.088;2023-04-24T19:34:23;4.10;;;2.53;;
11735;SDS011;5924;51.398;7.088;2023-04-24T19:36:50;5.70;;;3.03;;
11735;SDS011;5924;51.398;7.088;2023-04-24T19:39:15;3.10;;;2.80;;
11735;SDS011;5924;51.398;7.088;2023-04-24T19:41:41;10.03;;;3.77;;
11735;SDS011;5924;51.398;7.088;2023-04-24T19:44:06;4.17;;;3.30;;
11735;SDS011;5924;51.398;7.088;2023-04-24T19:46:32;6.07;;;2.80;;
11735;SDS011;5924;51.398;7.088;2023-04-24T19:48:58;4.53;;;2.70;;
11735;SDS011;5924;51.398;7.088;2023-04-24T19:51:24;2.47;;;2.27;;
11735;SDS011;5924;51.398;7.088;2023-04-24T19:53:50;4.03;;;2.80;;
11735;SDS011;5924;51.398;7.088;2023-04-24T19:56:15;3.83;;;2.93;;
11735;SDS011;5924;51.398;7.088;2023-04-24T19:58:41;6.00;;;3.27;;
11735;SDS011;5924;51.398;7.088;2023-04-24T20:01:07;12.30;;;2.80;;
11735;SDS011;5924;51.398;7.088;2023-04-24T20:03:32;4.20;;;3.37;;
11735;SDS011;5924;51.398;7.088;2023-04-24T20:05:58;6.47;;;3.10;;
11735;SDS011;5924;51.398;7.088;2023-04-24T20:08:24;4.00;;;2.43;;
11735;SDS011;5924;51.398;7.088;2023-04-24T20:10:49;3.73;;;2.97;;
11735;SDS011;5924;51.398;7.088;2023-04-24T20:13:16;6.67;;;2.43;;
11735;SDS011;5924;51.398;7.088;2023-04-24T20:15:41;10.13;;;2.70;;
11735;SDS011;5924;51.398;7.088;2023-04-24T20:18:07;4.73;;;2.70;;
11735;SDS011;5924;51.398;7.088;2023-04-24T20:20:33;3.20;;;3.00;;
11735;SDS011;5924;51.398;7.088;2023-04-24T20:23:02;2.72;;;2.55;;
11735;SDS011;5924;51.398;7.088;2023-04-24T20:25:28;4.47;;;2.63;;
11735;SDS011;5924;51.398;7.088;2023-04-24T20:27:54;5.70;;;3.60;;
11735;SDS011;5924;51.398;7.088;2023-04-24T20:30:20;6.17;;;3.73;;
11735;SDS011;5924;51.398;7.088;2023-04-24T20:32:46;4.50;;;3.50;;
11735;SDS011;5924;51.398;7.088;2023-04-24T20:35:12;4.83;;;3.67;;